Time;durP1;ratioP1;P1;durP2;ratioP2;P2;SDS_P1;SDS_P2;PMS_P1;PMS_P2;Temp;Humidity;BMP_temperature;BMP_pressure;BME280_temperature;BME280_humidity;BME280_pressure;Samples;Min_cycle;Max_cycle;Signal;HPM_P1;HPM_P2
2021/06/07 00:01:11;;;;;;;45.70;27.97;;;17.10;99.90;;;;;;5848117;23;20157;-66
2021/06/07 00:03:37;;;;;;;38.20;28.07;;;17.20;99.90;;;;;;5856612;23;20160;-66
2021/06/07 00:06:04;;;;;;;41.97;29.97;;;17.30;99.90;;;;;;5835127;23;20759;-66
2021/06/07 00:08:29;;;;;;;45.90;31.10;;;17.20;99.90;;;;;;5860806;23;21210;-66
2021/06/07 00:10:55;;;;;;;49.60;31.27;;;17.00;99.90;;;;;;5899409;23;20941;-66
2021/06/07 00:13:24;;;;;;;46.80;29.90;;;16.80;99.90;;;;;;5860361;23;20998;-66
2021/06/07 00:15:51;;;;;;;50.83;31.23;;;16.60;99.90;;;;;;5835381;23;20869;-66
2021/06/07 00:18:18;;;;;;;47.50;31.70;;;16.70;99.90;;;;;;5841730;23;20392;-66
2021/06/07 00:20:53;;;;;;;52.37;32.57;;;16.70;99.90;;;;;;5829181;23;20851;-66
2021/06/07 00:23:19;;;;;;;50.53;33.47;;;16.80;99.90;;;;;;5862841;23;20364;-66
2021/06/07 00:25:46;;;;;;;55.10;33.53;;;16.90;99.90;;;;;;5860244;23;20829;-66
2021/06/07 00:28:12;;;;;;;62.53;34.27;;;16.80;99.90;;;;;;5885280;23;20153;-66
2021/06/07 00:30:39;;;;;;;55.33;33.60;;;16.80;99.90;;;;;;5887890;23;20879;-66
2021/06/07 00:33:04;;;;;;;66.63;34.83;;;16.70;99.90;;;;;;5879739;23;21295;-66
2021/06/07 00:35:31;;;;;;;54.17;33.87;;;16.90;99.90;;;;;;5855490;23;20907;-66
2021/06/07 00:37:57;;;;;;;63.40;32.30;;;16.80;99.90;;;;;;5850813;23;20613;-66
2021/06/07 00:40:25;;;;;;;54.03;33.30;;;16.60;99.90;;;;;;5848766;23;20723;-66
2021/06/07 00:42:52;;;;;;;64.87;34.70;;;16.60;99.90;;;;;;5852937;23;20844;-66
2021/06/07 00:45:22;;;;;;;55.73;32.67;;;16.70;99.90;;;;;;5849595;23;20416;-66
2021/06/07 00:47:48;;;;;;;60.60;35.50;;;16.60;99.90;;;;;;5852134;23;20391;-66
2021/06/07 00:50:23;;;;;;;59.23;35.17;;;16.60;99.90;;;;;;5853399;23;20392;-66
2021/06/07 00:53:05;;;;;;;56.17;34.03;;;16.60;99.90;;;;;;5857445;23;20488;-66
2021/06/07 00:55:38;;;;;;;59.63;33.50;;;16.60;99.90;;;;;;5888441;23;20134;-66
2021/06/07 00:58:06;;;;;;;60.30;33.43;;;16.60;99.90;;;;;;5833538;23;20411;-66
2021/06/07 01:00:33;;;;;;;53.87;33.90;;;16.80;99.90;;;;;;5853981;23;20823;-66
2021/06/07 01:03:00;;;;;;;49.17;33.00;;;17.00;99.90;;;;;;5856698;23;21235;-66
2021/06/07 01:05:27;;;;;;;55.37;33.30;;;16.90;99.90;;;;;;5849965;23;20869;-66
2021/06/07 01:07:53;;;;;;;57.43;31.60;;;17.00;99.90;;;;;;5848089;23;20664;-66
2021/06/07 01:10:23;;;;;;;56.23;33.70;;;17.20;99.90;;;;;;5885140;23;20450;-66
2021/06/07 01:12:49;;;;;;;50.10;32.90;;;17.20;99.90;;;;;;5854863;23;20455;-66
2021/06/07 01:15:15;;;;;;;53.67;33.87;;;17.30;99.90;;;;;;5835065;23;20679;-66
2021/06/07 01:17:42;;;;;;;57.07;32.43;;;17.10;99.90;;;;;;5835992;23;20850;-66
2021/06/07 01:20:10;;;;;;;62.83;33.67;;;17.10;99.90;;;;;;5837412;23;20388;-66
2021/06/07 01:22:37;;;;;;;55.37;32.70;;;17.00;99.90;;;;;;5856342;23;20994;-66
2021/06/07 01:25:18;;;;;;;51.08;31.77;;;17.10;99.90;;;;;;5889560;23;20474;-66
2021/06/07 01:27:44;;;;;;;50.17;33.03;;;16.90;99.90;;;;;;5885892;23;20141;-66
2021/06/07 01:30:12;;;;;;;46.90;30.00;;;17.10;99.90;;;;;;5889140;23;20394;-66
2021/06/07 01:32:39;;;;;;;54.67;33.23;;;17.20;99.90;;;;;;5830122;23;20180;-66
2021/06/07 01:35:08;;;;;;;48.93;31.40;;;17.10;99.90;;;;;;5854188;23;20774;-65
2021/06/07 01:37:34;;;;;;;58.37;35.20;;;17.10;99.90;;;;;;5856819;23;20396;-65
2021/06/07 01:40:00;;;;;;;52.10;32.20;;;17.00;99.90;;;;;;5893239;23;20934;-65
2021/06/07 01:42:25;;;;;;;57.40;33.40;;;16.80;99.90;;;;;;5856005;23;20636;-65
2021/06/07 01:44:51;;;;;;;57.43;32.87;;;17.00;99.90;;;;;;5856640;23;21244;-65
2021/06/07 01:47:16;;;;;;;57.77;33.17;;;16.90;99.90;;;;;;5854099;23;20786;-65
2021/06/07 01:49:44;;;;;;;60.63;33.30;;;17.10;99.90;;;;;;5850703;23;20157;-65
2021/06/07 01:52:12;;;;;;;55.03;33.33;;;16.80;99.90;;;;;;5862503;23;20648;-65
2021/06/07 01:54:37;;;;;;;53.30;33.43;;;16.60;99.90;;;;;;5893288;23;20864;-65
2021/06/07 01:57:04;;;;;;;60.40;31.50;;;16.40;99.90;;;;;;5858789;23;21176;-65
2021/06/07 01:59:30;;;;;;;54.80;32.87;;;16.60;99.90;;;;;;5855336;23;20970;-65
2021/06/07 02:01:56;;;;;;;51.30;31.67;;;16.70;99.90;;;;;;5847178;23;20734;-65
2021/06/07 02:04:21;;;;;;;58.87;31.07;;;16.90;99.90;;;;;;5892147;23;20502;-65
2021/06/07 02:06:47;;;;;;;59.80;35.03;;;16.80;99.90;;;;;;5851080;23;20396;-65
2021/06/07 02:09:14;;;;;;;61.00;34.87;;;16.80;99.90;;;;;;5852198;23;20161;-65
2021/06/07 02:11:39;;;;;;;58.57;32.27;;;16.90;99.90;;;;;;5885432;23;20467;-65
2021/06/07 02:14:05;;;;;;;50.27;32.20;;;16.80;99.90;;;;;;5846056;23;20423;-65
2021/06/07 02:16:34;;;;;;;58.37;32.43;;;16.70;99.90;;;;;;5864010;23;20984;-65
2021/06/07 02:19:01;;;;;;;50.03;30.73;;;16.70;99.90;;;;;;5854837;23;20153;-65
2021/06/07 02:21:27;;;;;;;53.33;31.67;;;16.80;99.90;;;;;;5849356;23;20392;-65
2021/06/07 02:23:53;;;;;;;46.53;30.53;;;17.00;99.90;;;;;;5855896;23;20392;-65
2021/06/07 02:26:20;;;;;;;57.57;34.10;;;16.90;99.90;;;;;;5853675;23;20788;-65
2021/06/07 02:28:57;;;;;;;49.10;31.97;;;17.00;99.90;;;;;;5891445;23;20917;-65
2021/06/07 02:31:24;;;;;;;49.33;32.93;;;17.00;99.90;;;;;;5867052;23;20388;-65
2021/06/07 02:33:51;;;;;;;52.77;29.70;;;17.10;99.90;;;;;;5859850;23;20770;-65
2021/06/07 02:36:19;;;;;;;53.70;35.10;;;16.90;99.90;;;;;;5877795;23;20399;-65
2021/06/07 02:38:45;;;;;;;56.00;31.05;;;16.90;99.90;;;;;;5870656;23;20815;-65
2021/06/07 02:41:10;;;;;;;55.30;32.60;;;16.90;99.90;;;;;;5838398;23;20222;-65
2021/06/07 02:43:36;;;;;;;46.00;31.33;;;17.00;99.90;;;;;;5854349;23;20973;-65
2021/06/07 02:46:03;;;;;;;54.07;32.03;;;17.00;99.90;;;;;;5851604;23;20549;-65
2021/06/07 02:48:28;;;;;;;53.70;30.73;;;17.00;99.90;;;;;;5846481;23;20608;-65
2021/06/07 02:50:55;;;;;;;57.63;32.20;;;17.00;99.90;;;;;;5889440;23;20825;-65
2021/06/07 02:53:20;;;;;;;48.77;30.40;;;16.90;99.90;;;;;;5867919;23;20474;-65
2021/06/07 02:55:49;;;;;;;50.17;31.70;;;17.00;99.90;;;;;;5872830;23;21199;-65
2021/06/07 02:58:16;;;;;;;50.20;32.40;;;17.00;99.90;;;;;;5869726;23;20899;-65
2021/06/07 03:00:52;;;;;;;52.53;31.13;;;17.30;99.90;;;;;;5846093;23;20392;-65
2021/06/07 03:03:18;;;;;;;44.97;28.93;;;17.50;99.90;;;;;;5866394;23;20673;-65
2021/06/07 03:05:45;;;;;;;49.73;31.70;;;17.30;99.90;;;;;;5908072;23;20395;-65
2021/06/07 03:08:13;;;;;;;49.90;30.17;;;17.50;99.90;;;;;;5854759;23;20829;-65
2021/06/07 03:10:41;;;;;;;48.07;28.97;;;17.70;99.90;;;;;;5877387;23;20823;-65
2021/06/07 03:13:06;;;;;;;48.23;30.70;;;17.70;99.90;;;;;;5884987;23;20419;-65
2021/06/07 03:15:32;;;;;;;49.60;30.93;;;17.70;99.90;;;;;;5902497;23;20379;-65
2021/06/07 03:17:58;;;;;;;47.43;31.40;;;17.50;99.90;;;;;;5871224;23;20335;-65
2021/06/07 03:20:30;;;;;;;50.47;30.67;;;17.30;99.90;;;;;;5908289;23;21234;-65
2021/06/07 03:23:03;;;;;;;52.70;32.83;;;17.00;99.90;;;;;;5869905;23;20539;-65
2021/06/07 03:25:29;;;;;;;43.73;30.47;;;17.00;99.90;;;;;;5855009;23;20433;-65
2021/06/07 03:27:56;;;;;;;50.37;30.40;;;17.00;99.90;;;;;;5833379;23;20838;-65
2021/06/07 03:30:22;;;;;;;42.33;28.40;;;17.00;99.90;;;;;;5869749;23;20668;-65
2021/06/07 03:32:48;;;;;;;44.63;29.57;;;17.00;99.90;;;;;;5867409;23;20947;-65
2021/06/07 03:35:16;;;;;;;45.57;28.60;;;17.20;99.90;;;;;;5819282;23;21382;-65
2021/06/07 03:37:43;;;;;;;52.03;32.10;;;17.30;99.90;;;;;;5823964;23;20245;-65
2021/06/07 03:40:15;;;;;;;44.20;28.77;;;17.30;99.90;;;;;;5860559;23;20906;-65
2021/06/07 03:42:41;;;;;;;45.13;29.67;;;17.20;99.90;;;;;;5848773;23;20829;-65
2021/06/07 03:45:08;;;;;;;45.17;28.60;;;17.20;99.90;;;;;;5822847;23;20991;-65
2021/06/07 03:47:34;;;;;;;41.60;29.90;;;17.30;99.90;;;;;;5858158;23;20395;-65
2021/06/07 03:50:00;;;;;;;41.20;27.70;;;17.10;99.90;;;;;;5818931;23;21136;-65
2021/06/07 03:52:26;;;;;;;49.93;29.30;;;17.00;99.90;;;;;;5855765;23;20423;-65
2021/06/07 03:54:51;;;;;;;41.83;27.00;;;17.10;99.90;;;;;;5855172;23;20857;-65
2021/06/07 03:57:17;;;;;;;44.33;29.07;;;17.40;99.90;;;;;;5816210;23;20928;-65
2021/06/07 03:59:43;;;;;;;43.60;28.90;;;17.40;99.90;;;;;;5852584;23;20529;-65
2021/06/07 04:02:10;;;;;;;38.20;26.03;;;17.30;99.90;;;;;;5819129;23;20875;-64
2021/06/07 04:04:36;;;;;;;41.40;27.93;;;17.20;99.90;;;;;;5799086;23;20563;-65
2021/06/07 04:07:03;;;;;;;38.43;27.43;;;17.20;99.90;;;;;;5812872;23;20400;-65
2021/06/07 04:09:29;;;;;;;40.10;28.33;;;17.40;99.90;;;;;;5817216;23;20396;-66
2021/06/07 04:11:54;;;;;;;44.17;29.27;;;17.50;99.90;;;;;;5817378;23;20431;-66
2021/06/07 04:14:20;;;;;;;40.23;27.83;;;17.60;99.90;;;;;;5849672;23;20499;-66
2021/06/07 04:16:46;;;;;;;40.37;29.20;;;17.50;99.90;;;;;;5853093;23;20466;-66
2021/06/07 04:19:11;;;;;;;38.77;26.87;;;17.60;99.90;;;;;;5855055;23;20437;-67
2021/06/07 04:21:40;;;;;;;42.23;27.40;;;17.50;99.90;;;;;;5843611;23;20160;-68
2021/06/07 04:24:07;;;;;;;46.60;28.13;;;17.20;99.90;;;;;;5852173;23;20735;-67
2021/06/07 04:26:37;;;;;;;39.27;28.00;;;17.30;99.90;;;;;;5885707;23;20877;-67
2021/06/07 04:29:02;;;;;;;36.30;26.60;;;17.30;99.90;;;;;;5853782;23;21199;-67
2021/06/07 04:31:29;;;;;;;38.80;26.20;;;17.50;99.90;;;;;;5850828;23;21296;-67
2021/06/07 04:33:54;;;;;;;38.20;28.13;;;17.60;99.90;;;;;;5879608;23;20451;-67
2021/06/07 04:36:20;;;;;;;37.17;25.00;;;17.50;99.90;;;;;;5851599;23;21147;-67
2021/06/07 04:38:46;;;;;;;32.40;25.07;;;17.50;99.90;;;;;;5850617;23;20395;-67
2021/06/07 04:41:12;;;;;;;35.57;27.07;;;17.50;99.90;;;;;;5894133;23;20157;-67
2021/06/07 04:43:38;;;;;;;32.40;25.40;;;17.40;99.90;;;;;;5852075;23;20192;-67
2021/06/07 04:46:04;;;;;;;32.80;24.67;;;17.40;99.90;;;;;;5859184;23;20377;-67
2021/06/07 04:48:30;;;;;;;33.53;25.43;;;17.60;99.90;;;;;;5852914;23;20445;-67
2021/06/07 04:50:56;;;;;;;31.47;25.23;;;17.80;99.90;;;;;;5855151;23;20434;-67
2021/06/07 04:53:22;;;;;;;34.07;25.80;;;18.00;99.90;;;;;;5883383;23;20860;-67
2021/06/07 04:55:52;;;;;;;29.93;23.47;;;18.20;99.90;;;;;;5832003;23;20875;-67
2021/06/07 04:58:22;;;;;;;31.80;24.10;;;18.50;99.90;;;;;;5828508;23;21032;-67
2021/06/07 05:00:54;;;;;;;27.70;21.90;;;18.70;99.90;;;;;;5848975;23;20890;-67
2021/06/07 05:03:20;;;;;;;28.53;21.70;;;19.00;99.90;;;;;;5864687;23;20926;-67
2021/06/07 05:05:46;;;;;;;28.13;22.13;;;19.00;67.90;;;;;;5836750;23;20481;-67
2021/06/07 05:08:12;;;;;;;25.40;21.93;;;18.80;70.30;;;;;;5833782;23;20811;-66
2021/06/07 05:10:38;;;;;;;26.83;21.47;;;18.70;99.90;;;;;;5832050;23;20749;-67
2021/06/07 05:13:04;;;;;;;26.57;21.10;;;18.70;99.90;;;;;;5876300;23;20235;-67
2021/06/07 05:15:30;;;;;;;28.33;23.60;;;18.90;96.30;;;;;;5882918;23;20384;-67
2021/06/07 05:17:56;;;;;;;32.10;22.27;;;18.90;99.90;;;;;;5890262;23;20272;-67
2021/06/07 05:20:24;;;;;;;24.47;21.27;;;19.20;82.90;;;;;;5888715;23;20403;-67
2021/06/07 05:22:51;;;;;;;26.80;20.93;;;19.40;1.00;;;;;;5895497;23;20180;-67
2021/06/07 05:25:18;;;;;;;25.00;20.73;;;19.60;1.00;;;;;;5851410;23;20395;-67
2021/06/07 05:27:44;;;;;;;22.33;20.03;;;19.70;1.00;;;;;;5849991;23;20395;-67
2021/06/07 05:30:11;;;;;;;23.53;20.40;;;19.80;1.00;;;;;;5872331;23;20388;-67
2021/06/07 05:32:37;;;;;;;23.13;19.37;;;20.10;1.00;;;;;;5837419;23;20189;-67
2021/06/07 05:35:06;;;;;;;27.57;21.07;;;20.20;1.00;;;;;;5845512;23;20400;-67
2021/06/07 05:37:31;;;;;;;22.67;20.17;;;20.20;1.00;;;;;;5866527;23;20740;-67
2021/06/07 05:39:57;;;;;;;21.77;19.10;;;20.10;1.00;;;;;;5866519;23;20823;-67
2021/06/07 05:42:23;;;;;;;23.13;20.00;;;20.60;1.00;;;;;;5860901;23;20939;-68
2021/06/07 05:44:48;;;;;;;21.53;18.60;;;20.40;1.00;;;;;;5845373;23;20242;-68
2021/06/07 05:47:14;;;;;;;20.83;18.60;;;20.30;1.00;;;;;;5873390;23;20167;-67
2021/06/07 05:49:40;;;;;;;25.93;19.67;;;20.20;1.00;;;;;;5873200;23;20506;-67
2021/06/07 05:52:07;;;;;;;23.07;20.50;;;20.30;1.00;;;;;;5833039;23;20575;-67
2021/06/07 05:54:34;;;;;;;23.57;19.83;;;20.10;1.00;;;;;;5847941;23;20152;-67
2021/06/07 05:56:59;;;;;;;23.67;20.40;;;19.80;1.00;;;;;;5863507;23;20459;-67
2021/06/07 05:59:25;;;;;;;23.90;21.03;;;20.00;1.00;;;;;;5823162;23;20430;-67
2021/06/07 06:01:50;;;;;;;21.47;18.77;;;20.30;1.00;;;;;;5836497;23;20556;-67
2021/06/07 06:04:16;;;;;;;26.70;21.77;;;20.50;1.00;;;;;;5885940;23;20910;-67
2021/06/07 06:06:42;;;;;;;23.20;20.13;;;20.40;1.00;;;;;;5884543;23;20639;-67
2021/06/07 06:09:07;;;;;;;24.87;20.50;;;20.40;1.00;;;;;;5839201;23;20161;-67
2021/06/07 06:11:33;;;;;;;25.97;21.40;;;20.20;1.00;;;;;;5845721;23;20496;-67
2021/06/07 06:14:00;;;;;;;22.83;19.63;;;20.40;1.00;;;;;;5841783;23;20414;-67
2021/06/07 06:16:26;;;;;;;23.50;20.03;;;20.50;1.00;;;;;;5841919;23;20997;-67
2021/06/07 06:18:52;;;;;;;27.87;20.93;;;20.50;1.00;;;;;;5870019;23;20380;-67
2021/06/07 06:21:18;;;;;;;23.33;20.53;;;20.70;1.00;;;;;;5853875;23;20153;-67
2021/06/07 06:23:44;;;;;;;24.60;21.43;;;20.60;99.90;;;;;;5884441;23;20593;-67
2021/06/07 06:26:10;;;;;;;27.27;22.77;;;20.00;1.00;;;;;;5886448;23;20838;-67
2021/06/07 06:28:38;;;;;;;25.93;21.80;;;19.40;1.00;;;;;;5881308;23;20995;-68
2021/06/07 06:31:06;;;;;;;26.30;21.03;;;19.70;1.00;;;;;;5852915;23;20407;-67
2021/06/07 06:33:32;;;;;;;21.03;18.10;;;19.90;1.00;;;;;;5840401;23;20902;-67
2021/06/07 06:35:57;;;;;;;23.27;20.10;;;20.20;1.00;;;;;;5848625;23;20797;-67
2021/06/07 06:38:25;;;;;;;21.70;18.40;;;20.50;1.00;;;;;;5948162;23;20400;-68
2021/06/07 06:40:53;;;;;;;24.73;21.03;;;20.70;1.00;;;;;;5971778;23;20465;-67
2021/06/07 06:43:20;;;;;;;25.80;20.80;;;21.00;1.00;;;;;;5916803;23;20462;-67
2021/06/07 06:45:46;;;;;;;27.67;20.87;;;21.10;99.90;;;;;;5842869;23;21221;-67
2021/06/07 06:48:12;;;;;;;27.70;21.80;;;20.90;99.90;;;;;;5847808;23;20792;-67
2021/06/07 06:50:40;;;;;;;27.17;21.67;;;20.50;1.00;;;;;;5836909;23;20160;-68
2021/06/07 06:53:10;;;;;;;26.03;22.13;;;20.30;1.00;;;;;;5887502;23;20423;-67
2021/06/07 06:55:37;;;;;;;26.97;22.40;;;20.00;1.00;;;;;;5888295;23;20364;-67
2021/06/07 06:58:04;;;;;;;26.93;21.70;;;20.20;1.00;;;;;;5889205;23;20987;-67
2021/06/07 07:00:35;;;;;;;31.23;23.17;;;20.30;1.00;;;;;;5816442;23;20822;-68
2021/06/07 07:03:07;;;;;;;27.83;22.70;;;20.50;1.00;;;;;;5836957;23;20734;-71
2021/06/07 07:05:34;;;;;;;26.87;20.63;;;20.70;1.00;;;;;;5796572;23;20477;-68
2021/06/07 07:07:59;;;;;;;27.63;22.20;;;21.10;99.90;;;;;;5826412;23;20388;-66
2021/06/07 07:10:25;;;;;;;25.33;20.63;;;20.60;1.00;;;;;;5820173;23;20994;-66
2021/06/07 07:12:52;;;;;;;22.10;17.90;;;20.70;1.00;;;;;;5881234;23;20638;-66
2021/06/07 07:15:19;;;;;;;23.17;18.73;;;21.30;99.90;;;;;;5778470;23;20791;-71
2021/06/07 07:17:45;;;;;;;21.80;19.50;;;21.90;1.00;;;;;;5806923;23;20726;-71
2021/06/07 07:20:11;;;;;;;22.60;18.90;;;22.10;1.00;;;;;;5761910;23;20434;-70
2021/06/07 07:22:39;;;;;;;25.20;20.03;;;22.10;99.90;;;;;;5772972;23;20400;-70
2021/06/07 07:25:07;;;;;;;23.67;18.70;;;22.70;38.80;;;;;;5711431;23;20842;-72
2021/06/07 07:27:36;;;;;;;22.50;20.10;;;22.60;51.50;;;;;;5771083;23;20533;-69
2021/06/07 07:30:09;;;;;;;21.33;18.77;;;22.60;1.00;;;;;;5741970;23;20415;-68
2021/06/07 07:32:40;;;;;;;21.70;18.87;;;22.10;33.80;;;;;;5689323;23;20439;-70
2021/06/07 07:35:07;;;;;;;21.20;18.33;;;21.60;1.00;;;;;;5710584;23;20380;-72
2021/06/07 07:37:34;;;;;;;23.77;19.20;;;21.60;1.00;;;;;;5753789;23;20838;-71
2021/06/07 07:40:00;;;;;;;22.70;20.30;;;21.70;1.00;;;;;;5790817;23;20396;-69
2021/06/07 07:42:25;;;;;;;22.80;19.33;;;21.30;99.90;;;;;;5844393;23;20403;-72
2021/06/07 07:44:51;;;;;;;21.20;18.90;;;21.30;46.10;;;;;;5739864;23;20893;-68
2021/06/07 07:47:18;;;;;;;21.20;18.83;;;21.60;1.00;;;;;;5793137;23;20629;-69
2021/06/07 07:49:45;;;;;;;19.90;17.10;;;22.20;1.00;;;;;;5747861;23;20517;-67
2021/06/07 07:52:10;;;;;;;20.73;17.50;;;22.40;99.90;;;;;;5801367;23;20427;-70
2021/06/07 07:54:36;;;;;;;20.80;18.60;;;22.80;1.00;;;;;;5797371;23;20445;-72
2021/06/07 07:57:03;;;;;;;20.93;17.43;;;22.10;99.90;;;;;;5825480;23;20809;-70
2021/06/07 07:59:29;;;;;;;24.63;19.33;;;21.80;1.00;;;;;;5811615;23;20414;-66
2021/06/07 08:01:54;;;;;;;20.60;18.47;;;21.80;1.00;;;;;;5794342;23;20834;-66
2021/06/07 08:04:20;;;;;;;28.50;22.40;;;22.10;1.00;;;;;;5797875;23;20968;-72
2021/06/07 08:06:46;;;;;;;20.67;18.00;;;22.30;99.90;;;;;;5792934;23;20516;-73
2021/06/07 08:09:12;;;;;;;23.50;19.63;;;21.80;99.90;;;;;;5796778;23;20456;-71
2021/06/07 08:11:38;;;;;;;23.17;19.50;;;21.90;1.00;;;;;;5820234;23;20351;-74
2021/06/07 08:14:04;;;;;;;23.93;20.70;;;22.10;1.00;;;;;;5833084;23;20310;-72
2021/06/07 08:16:30;;;;;;;22.03;18.90;;;22.10;99.90;;;;;;5785323;23;20861;-74
2021/06/07 08:18:56;;;;;;;20.67;18.47;;;22.00;1.00;;;;;;5781833;23;20388;-72
2021/06/07 08:21:22;;;;;;;19.50;17.13;;;22.50;1.00;;;;;;5803107;23;20471;-69
2021/06/07 08:23:48;;;;;;;19.87;17.80;;;22.60;1.00;;;;;;5849524;23;20570;-72
2021/06/07 08:26:14;;;;;;;22.43;17.30;;;23.00;99.90;;;;;;5803604;23;20823;-70
2021/06/07 08:28:40;;;;;;;19.10;17.10;;;23.00;1.00;;;;;;5799341;23;20395;-71
2021/06/07 08:31:06;;;;;;;20.73;17.63;;;22.70;1.00;;;;;;5829549;23;20438;-70
2021/06/07 08:33:35;;;;;;;18.93;16.93;;;22.30;99.90;;;;;;5816916;23;20506;-68
2021/06/07 08:36:03;;;;;;;20.17;16.43;;;22.30;99.90;;;;;;5791377;23;20368;-69
2021/06/07 08:38:29;;;;;;;19.63;17.53;;;22.50;41.30;;;;;;5898113;23;20543;-70
2021/06/07 08:40:55;;;;;;;21.50;17.73;;;22.60;1.00;;;;;;5834577;23;20878;-72
2021/06/07 08:43:23;;;;;;;21.00;18.80;;;22.90;99.90;;;;;;5802733;23;20392;-70
2021/06/07 08:45:49;;;;;;;21.40;18.77;;;23.10;99.90;;;;;;5755485;23;20420;-71
2021/06/07 08:48:15;;;;;;;21.30;18.40;;;23.50;1.00;;;;;;5751856;23;20783;-71
2021/06/07 08:50:41;;;;;;;21.20;17.40;;;23.40;99.90;;;;;;5779240;23;21169;-68
2021/06/07 08:53:06;;;;;;;19.90;17.80;;;23.50;99.90;;;;;;5786198;23;20428;-71
2021/06/07 08:55:34;;;;;;;21.30;19.00;;;23.60;99.90;;;;;;5829130;23;21126;-71
2021/06/07 08:58:04;;;;;;;20.80;17.77;;;23.50;1.00;;;;;;5780786;23;20875;-70
2021/06/07 09:00:39;;;;;;;20.40;18.13;;;23.70;99.90;;;;;;5802393;23;20843;-69
2021/06/07 09:03:31;;;;;;;25.80;19.60;;;23.30;1.00;;;;;;5782710;23;20610;-68
2021/06/07 09:05:59;;;;;;;20.10;18.00;;;23.00;99.90;;;;;;5786765;23;20935;-66
2021/06/07 09:08:30;;;;;;;21.93;18.97;;;22.60;99.90;;;;;;5793380;23;20400;-69
2021/06/07 09:10:57;;;;;;;26.00;20.50;;;22.70;99.90;;;;;;5842241;23;20442;-66
2021/06/07 09:13:28;;;;;;;20.80;18.37;;;23.00;1.00;;;;;;5866509;23;20792;-66
2021/06/07 09:15:56;;;;;;;20.97;17.67;;;23.10;1.00;;;;;;5831624;23;20421;-63
2021/06/07 09:18:41;;;;;;;21.23;18.70;;;22.90;99.90;;;;;;5827452;23;20838;-63
2021/06/07 09:21:13;;;;;;;20.93;16.73;;;23.10;1.00;;;;;;5805686;23;20989;-70
2021/06/07 09:23:42;;;;;;;18.97;16.97;;;23.00;99.90;;;;;;5804346;23;20403;-71
2021/06/07 09:26:38;;;;;;;18.97;16.93;;;23.30;99.90;;;;;;5790524;23;20408;-71
2021/06/07 09:29:09;;;;;;;20.43;17.20;;;23.30;1.00;;;;;;5782000;23;20860;-71
2021/06/07 09:31:42;;;;;;;22.13;19.77;;;23.20;93.70;;;;;;5809726;23;20575;-71
2021/06/07 09:34:09;;;;;;;17.73;15.80;;;23.70;93.10;;;;;;5802041;23;21067;-69
2021/06/07 09:36:36;;;;;;;18.90;16.90;;;23.50;1.00;;;;;;5790563;23;20712;-69
2021/06/07 09:39:18;;;;;;;18.90;16.20;;;23.70;1.00;;;;;;5749194;23;20836;-68
2021/06/07 09:41:46;;;;;;;18.50;16.17;;;23.70;99.90;;;;;;5774198;23;20975;-69
2021/06/07 09:44:28;;;;;;;18.23;16.23;;;23.50;1.00;;;;;;5757092;23;20415;-71
2021/06/07 09:47:06;;;;;;;20.00;16.73;;;23.80;1.00;;;;;;5785453;23;21390;-70
2021/06/07 09:49:47;;;;;;;22.67;20.07;;;24.20;1.00;;;;;;5747472;23;20384;-71
2021/06/07 09:52:44;;;;;;;21.00;16.43;;;23.50;99.90;;;;;;5813105;23;21040;-70
2021/06/07 09:55:36;;;;;;;19.83;17.43;;;23.30;1.00;;;;;;5833492;23;20383;-73
2021/06/07 09:58:06;;;;;;;20.97;18.77;;;23.50;14.40;;;;;;5815286;23;20831;-71
2021/06/07 10:00:42;;;;;;;18.83;16.83;;;23.70;1.00;;;;;;5800592;23;20811;-69
2021/06/07 10:03:23;;;;;;;18.50;15.97;;;23.40;9.10;;;;;;5803566;23;20854;-68
2021/06/07 10:05:56;;;;;;;18.60;15.67;;;23.40;99.90;;;;;;5792041;23;20836;-68
2021/06/07 10:08:23;;;;;;;16.87;15.23;;;23.30;99.90;;;;;;5777822;23;20656;-68
2021/06/07 10:10:49;;;;;;;16.97;15.27;;;23.20;21.10;;;;;;5803795;23;21009;-69
2021/06/07 10:13:15;;;;;;;18.33;16.43;;;23.60;1.00;;;;;;5787934;23;21413;-70
2021/06/07 10:15:47;;;;;;;18.20;15.47;;;23.80;99.90;;;;;;5781051;23;20392;-70
2021/06/07 10:18:16;;;;;;;19.17;17.10;;;23.80;1.00;;;;;;5800883;23;20591;-71
2021/06/07 10:20:48;;;;;;;17.47;15.67;;;23.80;99.90;;;;;;5794550;23;20990;-70
2021/06/07 10:23:18;;;;;;;20.47;17.17;;;24.00;99.90;;;;;;5835822;23;20812;-69
2021/06/07 10:25:44;;;;;;;19.37;16.47;;;24.00;99.90;;;;;;5838788;23;20848;-70
2021/06/07 10:28:12;;;;;;;20.63;18.43;;;24.00;1.00;;;;;;5817135;23;20487;-70
2021/06/07 10:30:44;;;;;;;18.30;16.33;;;24.40;1.00;;;;;;5755440;23;20766;-71
2021/06/07 10:33:27;;;;;;;19.23;16.03;;;24.50;99.90;;;;;;5798004;23;21281;-70
2021/06/07 10:35:53;;;;;;;20.03;16.80;;;24.00;1.00;;;;;;5791719;23;20395;-69
2021/06/07 10:38:36;;;;;;;22.10;18.47;;;23.60;1.00;;;;;;5793628;23;20889;-72
2021/06/07 10:41:22;;;;;;;19.47;16.30;;;23.60;1.00;;;;;;5808800;23;21050;-73
2021/06/07 10:43:58;;;;;;;20.00;17.80;;;23.40;1.00;;;;;;5828627;23;20399;-69
2021/06/07 10:46:36;;;;;;;22.43;18.27;;;23.70;1.00;;;;;;5781512;23;20922;-69
2021/06/07 10:49:24;;;;;;;21.50;18.40;;;23.50;99.90;;;;;;5757446;23;20820;-73
2021/06/07 10:52:09;;;;;;;18.83;16.83;;;24.00;99.90;;;;;;5816798;23;20677;-69
2021/06/07 10:54:39;;;;;;;18.73;16.83;;;24.70;99.90;;;;;;5821798;23;20422;-71
2021/06/07 10:57:27;;;;;;;19.03;17.00;;;25.20;1.00;;;;;;5777154;23;20384;-66
2021/06/07 10:59:55;;;;;;;18.97;16.97;;;25.70;1.00;;;;;;5809091;23;20815;-69
2021/06/07 11:02:23;;;;;;;18.40;16.40;;;25.70;99.90;;;;;;5804889;23;20473;-67
2021/06/07 11:05:06;;;;;;;19.50;17.47;;;25.80;1.00;;;;;;5779485;23;20656;-69
2021/06/07 11:07:32;;;;;;;19.40;17.10;;;25.60;1.00;;;;;;5746450;23;20403;-71
2021/06/07 11:10:27;;;;;;;21.23;17.70;;;24.90;99.90;;;;;;5800228;23;20395;-70
2021/06/07 11:13:03;;;;;;;20.73;18.27;;;25.50;99.90;;;;;;5923473;23;20428;-70
2021/06/07 11:15:34;;;;;;;28.13;16.73;;;25.50;1.00;;;;;;5863895;23;20774;-69
2021/06/07 11:18:24;;;;;;;20.90;17.23;;;25.60;1.00;;;;;;5791937;23;20417;-69
2021/06/07 11:20:54;;;;;;;17.47;15.67;;;25.70;1.00;;;;;;5812058;23;20817;-70
2021/06/07 11:23:43;;;;;;;19.20;17.13;;;26.00;1.00;;;;;;5806411;23;20866;-70
2021/06/07 11:26:17;;;;;;;17.37;15.33;;;26.30;99.90;;;;;;5786167;23;20685;-70
2021/06/07 11:28:49;;;;;;;18.10;16.20;;;26.40;99.90;;;;;;5806114;23;20385;-70
2021/06/07 11:31:15;;;;;;;17.80;15.90;;;26.90;99.90;;;;;;5774723;23;21123;-69
2021/06/07 11:33:57;;;;;;;17.50;15.67;;;26.40;99.90;;;;;;5837996;23;21243;-70
2021/06/07 11:36:45;;;;;;;20.17;17.50;;;25.90;1.00;;;;;;5768646;23;20753;-70
2021/06/07 11:39:20;;;;;;;16.90;15.10;;;25.10;1.00;;;;;;5806949;23;20776;-69
2021/06/07 11:41:52;;;;;;;18.63;16.20;;;24.30;1.00;;;;;;5834431;23;20906;-68
2021/06/07 11:44:19;;;;;;;17.20;15.50;;;24.10;1.00;;;;;;5779450;23;20789;-67
2021/06/07 11:46:48;;;;;;;17.50;15.70;;;22.90;1.00;;;;;;5748492;23;20797;-69
2021/06/07 11:49:15;;;;;;;17.17;15.37;;;23.10;43.10;;;;;;5749427;23;20380;-68
2021/06/07 11:51:43;;;;;;;15.70;14.00;;;23.20;1.00;;;;;;5813184;23;21072;-70
2021/06/07 11:54:35;;;;;;;17.90;14.83;;;24.20;99.90;;;;;;5756260;23;20435;-74
2021/06/07 11:57:04;;;;;;;17.00;15.30;;;24.60;99.90;;;;;;5721560;23;20868;-68
2021/06/07 11:59:36;;;;;;;17.57;15.73;;;24.30;99.90;;;;;;5718775;23;20846;-70
2021/06/07 12:02:17;;;;;;;17.37;15.57;;;24.70;99.90;;;;;;5816392;23;20395;-68
2021/06/07 12:04:43;;;;;;;15.80;14.37;;;25.30;1.00;;;;;;5794766;23;20879;-68
2021/06/07 12:07:11;;;;;;;17.17;15.43;;;24.80;1.00;;;;;;5786508;23;20427;-65
2021/06/07 12:09:41;;;;;;;15.47;13.77;;;24.70;1.00;;;;;;5800028;23;20447;-65
2021/06/07 12:12:09;;;;;;;21.17;19.07;;;24.20;92.90;;;;;;5802886;23;20986;-65
2021/06/07 12:14:39;;;;;;;22.47;19.33;;;23.40;1.00;;;;;;5830751;23;20836;-66
2021/06/07 12:17:45;;;;;;;24.67;19.77;;;22.90;1.00;;;;;;5767765;23;21087;-65
2021/06/07 12:20:11;;;;;;;23.63;20.90;;;22.10;99.90;;;;;;5734657;23;20399;-64
2021/06/07 12:22:41;;;;;;;27.30;19.93;;;21.80;99.90;;;;;;5801402;23;20896;-66
2021/06/07 12:25:18;;;;;;;23.37;18.87;;;22.10;99.90;;;;;;5788337;23;20627;-66
2021/06/07 12:30:34;;;;;;;26.97;21.37;;;22.70;1.00;;;;;;5799294;23;20449;-68
2021/06/07 12:33:01;;;;;;;20.00;17.90;;;23.00;1.00;;;;;;5771487;23;20435;-70
2021/06/07 12:35:31;;;;;;;21.77;19.30;;;23.30;99.90;;;;;;5755217;23;20815;-66
2021/06/07 12:38:08;;;;;;;25.17;20.17;;;23.40;1.00;;;;;;5777375;23;20400;-66
2021/06/07 12:40:43;;;;;;;22.77;19.17;;;23.10;99.90;;;;;;5787092;23;20762;-65
2021/06/07 12:43:09;;;;;;;22.03;19.20;;;23.50;99.90;;;;;;5861291;23;20825;-65